Hjaltland — VSTY8 — position and weather

sailwx.info

Track history (hours):
 
Tides and Currents Weather Stations Pressure Air Temp Water Temp Dewpoint Dewpoint Depression Visibility Wind Speed Wind Dir Waves Ship Positions

Hjaltland

Operator: NorthLink Orkey & Shetland Ferries Ltd

Last reported at 2019-Dec-09 18:00 UTC. Time now 2019-Dec-12 09:18 UTC.
Position N 57°08' W 002°04'.

Type: Ship. MMSI: 235450000.

Date/timePositionNaut miles runAvg speedWind from/ knotsBaromVisibWave heightAir tempDewpointWater temp
2019-Dec-09 18:00N 57°08' W 002°04'1 0.1
2019-Dec-09 07:00N 57°09' W 002°05'117 3.9
2019-Dec-08 01:18N 59°05' W 002°26'1511.7
2019-Dec-08 00:01N 59°01' W 002°55'2910.6
2019-Dec-07 21:16N 58°37' W 002°23'8915.5
2019-Dec-07 15:30N 57°09' W 002°05'0 0.0
2019-Dec-07 14:30N 57°09' W 002°05'0 0.0
2019-Dec-07 14:00N 57°09' W 002°05'0 0.0
2019-Dec-07 10:29N 57°09' W 002°05'0 0.0
2019-Dec-07 09:29N 57°09' W 002°05'0 0.0
2019-Dec-07 08:29N 57°09' W 002°05'0 0.0
2019-Dec-07 06:59N 57°09' W 002°05'1 1.2
2019-Dec-07 06:30N 57°08' W 002°04'11119.3
2019-Dec-07 00:45N 58°58' W 002°37'1114.8
2019-Dec-07 00:00N 58°60' W 002°58'0 0.0
2019-Dec-06 23:06N 58°60' W 002°58'17 0.8
2019-Dec-06 01:47N 59°04' W 002°27'514.1
2019-Dec-06 01:27N 59°01' W 002°33'5 1.6
2019-Dec-05 22:30N 58°56' W 002°37'10721.4
2019-Dec-05 17:30N 57°12' W 001°58'5 4.7
2019-Dec-05 16:29N 57°09' W 002°05'0 0.0
2019-Dec-05 15:29N 57°09' W 002°05'0 0.0
2019-Dec-05 13:29N 57°09' W 002°05'0 0.0
2019-Dec-05 12:59N 57°09' W 002°05'0 0.0
2019-Dec-05 08:59N 57°09' W 002°05'9 2.9
2019-Dec-05 06:00N 57°15' W 001°54'10821.5
2019-Dec-05 01:00N 58°59' W 002°42'104 3.6
2019-Dec-03 19:57N 57°20' W 001°48'14 4.9
2019-Dec-03 16:59N 57°09' W 002°05'0 0.0
2019-Dec-03 14:59N 57°09' W 002°05'0 0.0
2019-Dec-03 13:29N 57°09' W 002°05'0 0.0
2019-Dec-03 11:29N 57°09' W 002°05'0 0.0
2019-Dec-03 09:29N 57°09' W 002°05'0 0.0
2019-Dec-03 08:59N 57°09' W 002°05'0 0.0
2019-Dec-03 08:29N 57°09' W 002°05'0 0.0
2019-Dec-03 07:29N 57°09' W 002°05'1 0.7
2019-Dec-03 06:30N 57°09' W 002°04'1313.3
2019-Dec-03 05:31N 57°19' W 001°48'108 3.8
2019-Dec-02 01:15N 59°05' W 002°27'17 7.6
2019-Dec-01 23:01N 58°60' W 002°58'11517.5
2019-Dec-01 16:28N 57°09' W 002°05'0 0.0
2019-Dec-01 15:58N 57°09' W 002°05'0 0.0
2019-Dec-01 13:58N 57°09' W 002°05'0 0.0
2019-Dec-01 12:58N 57°09' W 002°05'0 0.0
2019-Dec-01 11:58N 57°09' W 002°05'0 0.0
2019-Dec-01 11:28N 57°09' W 002°05'0 0.0
2019-Dec-01 08:28N 57°09' W 002°05'18 0.5
2019-Nov-29 20:08N 57°22' W 001°42'1117.4
2019-Nov-29 19:31N 57°13' W 001°54'  
Track history (hours):
 
Tides and Currents Weather Stations Pressure Air Temp Water Temp Dewpoint Dewpoint Depression Visibility Wind Speed Wind Dir Waves Ship Positions

Hjaltland

Operator: NorthLink Orkey & Shetland Ferries Ltd

Last reported at 2019-Dec-09 18:00 UTC. Time now 2019-Dec-12 09:18 UTC.
Position N 57°08' W 002°04'.

Type: Ship. MMSI: 235450000.

Date/timePositionNaut miles runAvg speedWind from/ knotsBaromVisibWave heightAir tempDewpointWater temp
2019-Dec-09 18:00N 57°08' W 002°04'1 0.1
2019-Dec-09 07:00N 57°09' W 002°05'117 3.9
2019-Dec-08 01:18N 59°05' W 002°26'1511.7
2019-Dec-08 00:01N 59°01' W 002°55'2910.6
2019-Dec-07 21:16N 58°37' W 002°23'8915.5
2019-Dec-07 15:30N 57°09' W 002°05'0 0.0
2019-Dec-07 14:30N 57°09' W 002°05'0 0.0
2019-Dec-07 14:00N 57°09' W 002°05'0 0.0
2019-Dec-07 10:29N 57°09' W 002°05'0 0.0
2019-Dec-07 09:29N 57°09' W 002°05'0 0.0
2019-Dec-07 08:29N 57°09' W 002°05'0 0.0
2019-Dec-07 06:59N 57°09' W 002°05'1 1.2
2019-Dec-07 06:30N 57°08' W 002°04'11119.3
2019-Dec-07 00:45N 58°58' W 002°37'1114.8
2019-Dec-07 00:00N 58°60' W 002°58'0 0.0
2019-Dec-06 23:06N 58°60' W 002°58'17 0.8
2019-Dec-06 01:47N 59°04' W 002°27'514.1
2019-Dec-06 01:27N 59°01' W 002°33'5 1.6
2019-Dec-05 22:30N 58°56' W 002°37'10721.4
2019-Dec-05 17:30N 57°12' W 001°58'5 4.7
2019-Dec-05 16:29N 57°09' W 002°05'0 0.0
2019-Dec-05 15:29N 57°09' W 002°05'0 0.0
2019-Dec-05 13:29N 57°09' W 002°05'0 0.0
2019-Dec-05 12:59N 57°09' W 002°05'0 0.0
2019-Dec-05 08:59N 57°09' W 002°05'9 2.9
2019-Dec-05 06:00N 57°15' W 001°54'10821.5
2019-Dec-05 01:00N 58°59' W 002°42'104 3.6
2019-Dec-03 19:57N 57°20' W 001°48'14 4.9
2019-Dec-03 16:59N 57°09' W 002°05'0 0.0
2019-Dec-03 14:59N 57°09' W 002°05'0 0.0
2019-Dec-03 13:29N 57°09' W 002°05'0 0.0
2019-Dec-03 11:29N 57°09' W 002°05'0 0.0
2019-Dec-03 09:29N 57°09' W 002°05'0 0.0
2019-Dec-03 08:59N 57°09' W 002°05'0 0.0
2019-Dec-03 08:29N 57°09' W 002°05'0 0.0
2019-Dec-03 07:29N 57°09' W 002°05'1 0.7
2019-Dec-03 06:30N 57°09' W 002°04'1313.3
2019-Dec-03 05:31N 57°19' W 001°48'108 3.8
2019-Dec-02 01:15N 59°05' W 002°27'17 7.6
2019-Dec-01 23:01N 58°60' W 002°58'11517.5
2019-Dec-01 16:28N 57°09' W 002°05'0 0.0
2019-Dec-01 15:58N 57°09' W 002°05'0 0.0
2019-Dec-01 13:58N 57°09' W 002°05'0 0.0
2019-Dec-01 12:58N 57°09' W 002°05'0 0.0
2019-Dec-01 11:58N 57°09' W 002°05'0 0.0
2019-Dec-01 11:28N 57°09' W 002°05'0 0.0
2019-Dec-01 08:28N 57°09' W 002°05'18 0.5
2019-Nov-29 20:08N 57°22' W 001°42'1117.4
2019-Nov-29 19:31N 57°13' W 001°54'  

Dump ship's entire track history